Etusivu
METAR-TAF:

METAR-TAF

Lentoasemat :

Frankfort, Michigan, Yhdysvallat

Leveyspiiri: 44-37-30N, Pituuspiiri: 086-12-02W, korkeus merenpinnasta: 193 m

Tämänhetkinen sää

Tämä raportti tehtiin 14 minuuttia sitten, kello 06.15 UTC
tyyntä
Lämpötila 17°C
Kosteus 82%
Ilmanpaine 1019 hPa
Näkyvyys: 16.1 km
Pilvistä 8000 ft:n korkeudessa

METAR: KFKS 150615Z AUTO 00000KT 10SM OVC080 17/14 A3010 RMK AO2 T01680142

Aika: 02:29 (06:29 UTC)


TAF: puuttuu

Säähavainnot ja -ennusteet yli 4000 lentoasemalta (METAR- ja TAF-raportit).

Käytössä olevat sääasemat on merkitty karttaan keltaisilla ja punaisilla pisteillä.

Aseta hiiri pisteen päälle nähdäksesi sääaseman nimen.

Klikkaa sitten nähdäksesi säähavainnot ja -ennusteet.

Kartan vaihtaminen: klikkaa mustalla rastilla varustettuja vihreitä pisteitä, niin voit zoomata sisään; viivalla varustettua vihreää pistettä, niin voit zoomata ulos tai vihreitä nuolia, niin pääset viereisille kartoille.


METAR-TAF: